sensor_id;sensor_type;location;lat;lon;timestamp;P1;durP1;ratioP1;P2;durP2;ratioP2
11616;SDS011;5864;52.998;9.068;2023-04-24T00:00:21;3.03;;;2.70;;
11616;SDS011;5864;52.998;9.068;2023-04-24T00:03:06;2.67;;;2.47;;
11616;SDS011;5864;52.998;9.068;2023-04-24T00:05:52;4.10;;;2.83;;
11616;SDS011;5864;52.998;9.068;2023-04-24T00:08:39;2.80;;;2.60;;
11616;SDS011;5864;52.998;9.068;2023-04-24T00:11:24;2.60;;;2.40;;
11616;SDS011;5864;52.998;9.068;2023-04-24T00:14:10;3.17;;;2.50;;
11616;SDS011;5864;52.998;9.068;2023-04-24T00:16:56;3.33;;;2.50;;
11616;SDS011;5864;52.998;9.068;2023-04-24T00:19:41;2.77;;;2.57;;
11616;SDS011;5864;52.998;9.068;2023-04-24T00:22:28;2.20;;;2.00;;
11616;SDS011;5864;52.998;9.068;2023-04-24T00:25:15;3.23;;;1.97;;
11616;SDS011;5864;52.998;9.068;2023-04-24T00:28:01;2.47;;;2.27;;
11616;SDS011;5864;52.998;9.068;2023-04-24T00:30:46;4.03;;;2.40;;
11616;SDS011;5864;52.998;9.068;2023-04-24T00:33:32;3.63;;;2.30;;
11616;SDS011;5864;52.998;9.068;2023-04-24T00:36:17;2.73;;;2.53;;
11616;SDS011;5864;52.998;9.068;2023-04-24T00:39:04;3.30;;;2.10;;
11616;SDS011;5864;52.998;9.068;2023-04-24T00:41:53;2.37;;;1.80;;
11616;SDS011;5864;52.998;9.068;2023-04-24T00:44:39;2.00;;;1.90;;
11616;SDS011;5864;52.998;9.068;2023-04-24T00:47:25;2.20;;;2.00;;
11616;SDS011;5864;52.998;9.068;2023-04-24T00:50:10;2.33;;;1.70;;
11616;SDS011;5864;52.998;9.068;2023-04-24T00:52:56;1.87;;;1.77;;
11616;SDS011;5864;52.998;9.068;2023-04-24T00:55:42;1.67;;;1.57;;
11616;SDS011;5864;52.998;9.068;2023-04-24T00:58:29;2.00;;;1.90;;
11616;SDS011;5864;52.998;9.068;2023-04-24T01:01:15;4.90;;;1.90;;
11616;SDS011;5864;52.998;9.068;2023-04-24T01:04:02;2.40;;;2.00;;
11616;SDS011;5864;52.998;9.068;2023-04-24T01:06:47;2.00;;;1.90;;
11616;SDS011;5864;52.998;9.068;2023-04-24T01:09:35;2.50;;;1.80;;
11616;SDS011;5864;52.998;9.068;2023-04-24T01:12:21;1.97;;;1.87;;
11616;SDS011;5864;52.998;9.068;2023-04-24T01:15:08;2.63;;;1.80;;
11616;SDS011;5864;52.998;9.068;2023-04-24T01:17:55;1.80;;;1.70;;
11616;SDS011;5864;52.998;9.068;2023-04-24T01:20:40;2.13;;;1.70;;
11616;SDS011;5864;52.998;9.068;2023-04-24T01:23:29;1.60;;;1.50;;
11616;SDS011;5864;52.998;9.068;2023-04-24T01:26:15;1.80;;;1.70;;
11616;SDS011;5864;52.998;9.068;2023-04-24T01:29:03;1.40;;;1.30;;
11616;SDS011;5864;52.998;9.068;2023-04-24T01:31:49;2.00;;;1.80;;
11616;SDS011;5864;52.998;9.068;2023-04-24T01:34:34;2.10;;;1.60;;
11616;SDS011;5864;52.998;9.068;2023-04-24T01:37:20;1.80;;;1.70;;
11616;SDS011;5864;52.998;9.068;2023-04-24T01:40:08;1.80;;;1.70;;
11616;SDS011;5864;52.998;9.068;2023-04-24T01:42:53;2.23;;;1.57;;
11616;SDS011;5864;52.998;9.068;2023-04-24T01:45:39;1.87;;;1.57;;
11616;SDS011;5864;52.998;9.068;2023-04-24T01:48:25;2.20;;;1.90;;
11616;SDS011;5864;52.998;9.068;2023-04-24T01:51:10;1.70;;;1.60;;
11616;SDS011;5864;52.998;9.068;2023-04-24T01:53:57;2.13;;;1.93;;
11616;SDS011;5864;52.998;9.068;2023-04-24T01:56:43;2.37;;;2.17;;
11616;SDS011;5864;52.998;9.068;2023-04-24T01:59:30;2.40;;;2.03;;
11616;SDS011;5864;52.998;9.068;2023-04-24T02:02:18;2.30;;;2.00;;
11616;SDS011;5864;52.998;9.068;2023-04-24T02:05:05;2.13;;;2.03;;
11616;SDS011;5864;52.998;9.068;2023-04-24T02:07:51;3.10;;;2.17;;
11616;SDS011;5864;52.998;9.068;2023-04-24T02:10:37;2.47;;;1.90;;
11616;SDS011;5864;52.998;9.068;2023-04-24T02:13:24;2.47;;;2.27;;
11616;SDS011;5864;52.998;9.068;2023-04-24T02:16:10;2.87;;;1.90;;
11616;SDS011;5864;52.998;9.068;2023-04-24T02:18:56;2.03;;;1.93;;
11616;SDS011;5864;52.998;9.068;2023-04-24T02:21:41;2.87;;;2.13;;
11616;SDS011;5864;52.998;9.068;2023-04-24T02:24:27;2.40;;;2.20;;
11616;SDS011;5864;52.998;9.068;2023-04-24T02:27:12;2.23;;;2.03;;
11616;SDS011;5864;52.998;9.068;2023-04-24T02:29:59;2.30;;;2.10;;
11616;SDS011;5864;52.998;9.068;2023-04-24T02:32:46;2.47;;;2.27;;
11616;SDS011;5864;52.998;9.068;2023-04-24T02:35:31;2.87;;;2.27;;
11616;SDS011;5864;52.998;9.068;2023-04-24T02:38:16;3.37;;;2.40;;
11616;SDS011;5864;52.998;9.068;2023-04-24T02:41:03;2.83;;;2.30;;
11616;SDS011;5864;52.998;9.068;2023-04-24T02:43:49;3.27;;;2.40;;
11616;SDS011;5864;52.998;9.068;2023-04-24T02:46:36;2.43;;;2.23;;
11616;SDS011;5864;52.998;9.068;2023-04-24T02:49:21;2.50;;;2.30;;
11616;SDS011;5864;52.998;9.068;2023-04-24T02:52:08;2.03;;;1.93;;
11616;SDS011;5864;52.998;9.068;2023-04-24T02:54:53;2.50;;;2.30;;
11616;SDS011;5864;52.998;9.068;2023-04-24T02:57:39;2.47;;;2.27;;
11616;SDS011;5864;52.998;9.068;2023-04-24T03:00:25;2.50;;;2.30;;
11616;SDS011;5864;52.998;9.068;2023-04-24T03:03:12;2.47;;;2.23;;
11616;SDS011;5864;52.998;9.068;2023-04-24T03:05:59;2.40;;;2.20;;
11616;SDS011;5864;52.998;9.068;2023-04-24T03:08:45;2.40;;;2.20;;
11616;SDS011;5864;52.998;9.068;2023-04-24T03:11:30;2.40;;;2.20;;
11616;SDS011;5864;52.998;9.068;2023-04-24T03:14:16;2.87;;;2.27;;
11616;SDS011;5864;52.998;9.068;2023-04-24T03:17:02;2.70;;;2.50;;
11616;SDS011;5864;52.998;9.068;2023-04-24T03:19:49;3.03;;;2.57;;
11616;SDS011;5864;52.998;9.068;2023-04-24T03:22:36;2.60;;;2.40;;
11616;SDS011;5864;52.998;9.068;2023-04-24T03:25:21;2.50;;;2.30;;
11616;SDS011;5864;52.998;9.068;2023-04-24T03:28:07;3.10;;;2.20;;
11616;SDS011;5864;52.998;9.068;2023-04-24T03:30:52;2.20;;;2.00;;
11616;SDS011;5864;52.998;9.068;2023-04-24T03:33:39;2.37;;;2.17;;
11616;SDS011;5864;52.998;9.068;2023-04-24T03:36:25;2.17;;;1.90;;
11616;SDS011;5864;52.998;9.068;2023-04-24T03:39:12;1.60;;;1.50;;
11616;SDS011;5864;52.998;9.068;2023-04-24T03:41:57;1.87;;;1.70;;
11616;SDS011;5864;52.998;9.068;2023-04-24T03:44:44;1.73;;;1.50;;
11616;SDS011;5864;52.998;9.068;2023-04-24T03:47:29;2.00;;;1.47;;
11616;SDS011;5864;52.998;9.068;2023-04-24T03:50:15;2.40;;;1.73;;
11616;SDS011;5864;52.998;9.068;2023-04-24T03:53:02;1.57;;;1.27;;
11616;SDS011;5864;52.998;9.068;2023-04-24T03:55:48;1.67;;;1.57;;
11616;SDS011;5864;52.998;9.068;2023-04-24T03:58:33;1.60;;;1.50;;
11616;SDS011;5864;52.998;9.068;2023-04-24T04:01:20;1.60;;;1.50;;
11616;SDS011;5864;52.998;9.068;2023-04-24T04:04:06;1.90;;;1.47;;
11616;SDS011;5864;52.998;9.068;2023-04-24T04:06:53;2.13;;;1.40;;
11616;SDS011;5864;52.998;9.068;2023-04-24T04:09:40;2.00;;;1.80;;
11616;SDS011;5864;52.998;9.068;2023-04-24T04:12:26;1.80;;;1.50;;
11616;SDS011;5864;52.998;9.068;2023-04-24T04:15:11;3.77;;;1.60;;
11616;SDS011;5864;52.998;9.068;2023-04-24T04:17:58;1.70;;;1.60;;
11616;SDS011;5864;52.998;9.068;2023-04-24T04:20:43;2.67;;;1.40;;
11616;SDS011;5864;52.998;9.068;2023-04-24T04:23:30;1.83;;;1.43;;
11616;SDS011;5864;52.998;9.068;2023-04-24T04:26:17;2.07;;;1.60;;
11616;SDS011;5864;52.998;9.068;2023-04-24T04:29:03;1.60;;;1.50;;
11616;SDS011;5864;52.998;9.068;2023-04-24T04:31:50;1.70;;;1.60;;
11616;SDS011;5864;52.998;9.068;2023-04-24T04:34:36;1.70;;;1.60;;
11616;SDS011;5864;52.998;9.068;2023-04-24T04:37:23;1.90;;;1.70;;
11616;SDS011;5864;52.998;9.068;2023-04-24T04:40:09;1.70;;;1.60;;
11616;SDS011;5864;52.998;9.068;2023-04-24T04:42:56;1.80;;;1.70;;
11616;SDS011;5864;52.998;9.068;2023-04-24T04:45:41;1.97;;;1.87;;
11616;SDS011;5864;52.998;9.068;2023-04-24T04:48:29;2.73;;;1.80;;
11616;SDS011;5864;52.998;9.068;2023-04-24T04:51:15;4.47;;;2.20;;
11616;SDS011;5864;52.998;9.068;2023-04-24T04:54:00;2.20;;;1.93;;
11616;SDS011;5864;52.998;9.068;2023-04-24T04:56:46;2.10;;;1.90;;
11616;SDS011;5864;52.998;9.068;2023-04-24T04:59:33;1.87;;;1.77;;
11616;SDS011;5864;52.998;9.068;2023-04-24T05:02:19;2.20;;;2.00;;
11616;SDS011;5864;52.998;9.068;2023-04-24T05:05:05;2.90;;;2.27;;
11616;SDS011;5864;52.998;9.068;2023-04-24T05:07:51;2.10;;;1.90;;
11616;SDS011;5864;52.998;9.068;2023-04-24T05:10:37;2.00;;;1.80;;
11616;SDS011;5864;52.998;9.068;2023-04-24T05:13:22;3.13;;;2.00;;
11616;SDS011;5864;52.998;9.068;2023-04-24T05:16:09;2.50;;;2.30;;
11616;SDS011;5864;52.998;9.068;2023-04-24T05:18:55;3.10;;;2.70;;
11616;SDS011;5864;52.998;9.068;2023-04-24T05:21:41;3.40;;;2.53;;
11616;SDS011;5864;52.998;9.068;2023-04-24T05:24:26;3.07;;;2.77;;
11616;SDS011;5864;52.998;9.068;2023-04-24T05:27:12;4.17;;;2.70;;
11616;SDS011;5864;52.998;9.068;2023-04-24T05:29:58;3.50;;;3.20;;
11616;SDS011;5864;52.998;9.068;2023-04-24T05:32:46;4.20;;;2.90;;
11616;SDS011;5864;52.998;9.068;2023-04-24T05:35:32;3.67;;;2.90;;
11616;SDS011;5864;52.998;9.068;2023-04-24T05:38:18;3.07;;;2.77;;
11616;SDS011;5864;52.998;9.068;2023-04-24T05:41:03;3.40;;;3.10;;
11616;SDS011;5864;52.998;9.068;2023-04-24T05:43:49;2.80;;;2.60;;
11616;SDS011;5864;52.998;9.068;2023-04-24T05:46:34;4.10;;;3.13;;
11616;SDS011;5864;52.998;9.068;2023-04-24T05:49:21;3.47;;;3.17;;
11616;SDS011;5864;52.998;9.068;2023-04-24T05:52:07;4.10;;;3.33;;
11616;SDS011;5864;52.998;9.068;2023-04-24T05:54:52;3.97;;;3.23;;
11616;SDS011;5864;52.998;9.068;2023-04-24T05:57:38;4.27;;;3.30;;
11616;SDS011;5864;52.998;9.068;2023-04-24T06:00:24;4.40;;;3.77;;
11616;SDS011;5864;52.998;9.068;2023-04-24T06:03:09;4.43;;;3.93;;
11616;SDS011;5864;52.998;9.068;2023-04-24T06:05:56;4.57;;;3.73;;
11616;SDS011;5864;52.998;9.068;2023-04-24T06:08:42;4.80;;;4.40;;
11616;SDS011;5864;52.998;9.068;2023-04-24T06:11:27;5.23;;;4.33;;
11616;SDS011;5864;52.998;9.068;2023-04-24T06:14:13;5.37;;;4.43;;
11616;SDS011;5864;52.998;9.068;2023-04-24T06:16:59;7.27;;;4.87;;
11616;SDS011;5864;52.998;9.068;2023-04-24T06:19:45;6.87;;;4.73;;
11616;SDS011;5864;52.998;9.068;2023-04-24T06:22:32;4.73;;;4.33;;
11616;SDS011;5864;52.998;9.068;2023-04-24T06:25:19;6.73;;;5.40;;
11616;SDS011;5864;52.998;9.068;2023-04-24T06:28:05;6.67;;;5.40;;
11616;SDS011;5864;52.998;9.068;2023-04-24T06:30:50;6.17;;;5.57;;
11616;SDS011;5864;52.998;9.068;2023-04-24T06:33:36;6.40;;;5.80;;
11616;SDS011;5864;52.998;9.068;2023-04-24T06:36:21;6.80;;;6.20;;
11616;SDS011;5864;52.998;9.068;2023-04-24T06:39:08;7.27;;;5.73;;
11616;SDS011;5864;52.998;9.068;2023-04-24T06:41:54;7.83;;;6.93;;
11616;SDS011;5864;52.998;9.068;2023-04-24T06:44:39;7.47;;;6.77;;
11616;SDS011;5864;52.998;9.068;2023-04-24T06:47:25;8.90;;;7.17;;
11616;SDS011;5864;52.998;9.068;2023-04-24T06:50:11;7.20;;;6.50;;
11616;SDS011;5864;52.998;9.068;2023-04-24T06:52:56;8.03;;;7.23;;
11616;SDS011;5864;52.998;9.068;2023-04-24T06:55:43;10.07;;;6.80;;
11616;SDS011;5864;52.998;9.068;2023-04-24T06:58:30;8.97;;;7.47;;
11616;SDS011;5864;52.998;9.068;2023-04-24T07:01:15;9.00;;;7.47;;
11616;SDS011;5864;52.998;9.068;2023-04-24T07:04:01;10.93;;;7.83;;
11616;SDS011;5864;52.998;9.068;2023-04-24T07:06:47;8.10;;;7.30;;
11616;SDS011;5864;52.998;9.068;2023-04-24T07:09:34;8.03;;;7.27;;
11616;SDS011;5864;52.998;9.068;2023-04-24T07:12:23;10.83;;;7.50;;
11616;SDS011;5864;52.998;9.068;2023-04-24T07:15:10;9.00;;;8.10;;
11616;SDS011;5864;52.998;9.068;2023-04-24T07:17:55;8.37;;;7.33;;
11616;SDS011;5864;52.998;9.068;2023-04-24T07:20:42;8.83;;;7.10;;
11616;SDS011;5864;52.998;9.068;2023-04-24T07:23:27;8.97;;;7.87;;
11616;SDS011;5864;52.998;9.068;2023-04-24T07:26:13;8.73;;;7.83;;
11616;SDS011;5864;52.998;9.068;2023-04-24T07:29:00;9.23;;;8.33;;
11616;SDS011;5864;52.998;9.068;2023-04-24T07:31:46;10.07;;;7.63;;
11616;SDS011;5864;52.998;9.068;2023-04-24T07:34:31;8.03;;;7.20;;
11616;SDS011;5864;52.998;9.068;2023-04-24T07:37:18;8.90;;;8.03;;
11616;SDS011;5864;52.998;9.068;2023-04-24T07:40:04;10.27;;;8.50;;
11616;SDS011;5864;52.998;9.068;2023-04-24T07:42:51;9.47;;;8.10;;
11616;SDS011;5864;52.998;9.068;2023-04-24T07:45:37;10.57;;;8.07;;
11616;SDS011;5864;52.998;9.068;2023-04-24T07:48:24;9.10;;;8.20;;
11616;SDS011;5864;52.998;9.068;2023-04-24T07:51:10;9.03;;;8.10;;
11616;SDS011;5864;52.998;9.068;2023-04-24T07:53:57;10.07;;;8.30;;
11616;SDS011;5864;52.998;9.068;2023-04-24T07:56:42;11.70;;;8.10;;
11616;SDS011;5864;52.998;9.068;2023-04-24T07:59:28;10.43;;;8.87;;
11616;SDS011;5864;52.998;9.068;2023-04-24T08:02:16;10.23;;;8.73;;
11616;SDS011;5864;52.998;9.068;2023-04-24T08:05:02;11.03;;;8.63;;
11616;SDS011;5864;52.998;9.068;2023-04-24T08:07:47;11.53;;;8.13;;
11616;SDS011;5864;52.998;9.068;2023-04-24T08:10:34;10.67;;;8.97;;
11616;SDS011;5864;52.998;9.068;2023-04-24T08:13:19;11.63;;;8.97;;
11616;SDS011;5864;52.998;9.068;2023-04-24T08:16:06;11.23;;;9.43;;
11616;SDS011;5864;52.998;9.068;2023-04-24T08:18:53;11.03;;;9.60;;
11616;SDS011;5864;52.998;9.068;2023-04-24T08:21:39;10.87;;;9.33;;
11616;SDS011;5864;52.998;9.068;2023-04-24T08:24:24;12.57;;;9.80;;
11616;SDS011;5864;52.998;9.068;2023-04-24T08:27:10;13.40;;;11.00;;
11616;SDS011;5864;52.998;9.068;2023-04-24T08:29:56;13.33;;;10.63;;
11616;SDS011;5864;52.998;9.068;2023-04-24T08:32:42;11.60;;;10.27;;
11616;SDS011;5864;52.998;9.068;2023-04-24T08:35:29;14.07;;;11.43;;
11616;SDS011;5864;52.998;9.068;2023-04-24T08:38:15;15.13;;;12.00;;
11616;SDS011;5864;52.998;9.068;2023-04-24T08:41:01;13.73;;;11.33;;
11616;SDS011;5864;52.998;9.068;2023-04-24T08:43:48;17.90;;;12.60;;
11616;SDS011;5864;52.998;9.068;2023-04-24T08:46:34;15.10;;;11.80;;
11616;SDS011;5864;52.998;9.068;2023-04-24T08:49:21;13.40;;;11.27;;
11616;SDS011;5864;52.998;9.068;2023-04-24T08:52:11;15.63;;;12.13;;
11616;SDS011;5864;52.998;9.068;2023-04-24T08:54:57;16.17;;;12.17;;
11616;SDS011;5864;52.998;9.068;2023-04-24T08:57:45;17.47;;;12.30;;
11616;SDS011;5864;52.998;9.068;2023-04-24T09:00:34;13.63;;;11.70;;
11616;SDS011;5864;52.998;9.068;2023-04-24T09:03:21;13.23;;;11.57;;
11616;SDS011;5864;52.998;9.068;2023-04-24T09:06:07;15.27;;;11.37;;
11616;SDS011;5864;52.998;9.068;2023-04-24T09:08:55;17.20;;;12.63;;
11616;SDS011;5864;52.998;9.068;2023-04-24T09:11:42;14.60;;;11.83;;
11616;SDS011;5864;52.998;9.068;2023-04-24T09:14:28;16.80;;;12.67;;
11616;SDS011;5864;52.998;9.068;2023-04-24T09:17:15;19.97;;;13.30;;
11616;SDS011;5864;52.998;9.068;2023-04-24T09:20:01;13.77;;;10.90;;
11616;SDS011;5864;52.998;9.068;2023-04-24T09:22:48;14.93;;;11.87;;
11616;SDS011;5864;52.998;9.068;2023-04-24T09:25:39;16.43;;;11.37;;
11616;SDS011;5864;52.998;9.068;2023-04-24T09:28:25;15.30;;;11.60;;
11616;SDS011;5864;52.998;9.068;2023-04-24T09:31:14;14.17;;;11.20;;
11616;SDS011;5864;52.998;9.068;2023-04-24T09:34:02;14.37;;;11.40;;
11616;SDS011;5864;52.998;9.068;2023-04-24T09:36:49;16.13;;;11.53;;
11616;SDS011;5864;52.998;9.068;2023-04-24T09:39:35;12.73;;;10.30;;
11616;SDS011;5864;52.998;9.068;2023-04-24T09:42:22;11.67;;;10.47;;
11616;SDS011;5864;52.998;9.068;2023-04-24T09:45:14;10.40;;;9.30;;
11616;SDS011;5864;52.998;9.068;2023-04-24T09:47:59;13.50;;;9.87;;
11616;SDS011;5864;52.998;9.068;2023-04-24T09:50:45;13.33;;;9.97;;
11616;SDS011;5864;52.998;9.068;2023-04-24T09:53:31;10.93;;;9.10;;
11616;SDS011;5864;52.998;9.068;2023-04-24T09:56:17;10.87;;;9.10;;
11616;SDS011;5864;52.998;9.068;2023-04-24T09:59:06;10.87;;;8.80;;
11616;SDS011;5864;52.998;9.068;2023-04-24T10:01:51;12.70;;;9.50;;
11616;SDS011;5864;52.998;9.068;2023-04-24T10:04:38;9.07;;;7.93;;
11616;SDS011;5864;52.998;9.068;2023-04-24T10:07:25;10.20;;;8.57;;
11616;SDS011;5864;52.998;9.068;2023-04-24T10:10:11;7.77;;;6.97;;
11616;SDS011;5864;52.998;9.068;2023-04-24T10:12:56;9.80;;;8.10;;
11616;SDS011;5864;52.998;9.068;2023-04-24T10:15:43;9.60;;;7.40;;
11616;SDS011;5864;52.998;9.068;2023-04-24T10:18:30;7.70;;;6.90;;
11616;SDS011;5864;52.998;9.068;2023-04-24T10:21:16;10.97;;;7.27;;
11616;SDS011;5864;52.998;9.068;2023-04-24T10:24:02;8.10;;;6.57;;
11616;SDS011;5864;52.998;9.068;2023-04-24T10:26:48;9.90;;;7.67;;
11616;SDS011;5864;52.998;9.068;2023-04-24T10:29:34;8.27;;;7.37;;
11616;SDS011;5864;52.998;9.068;2023-04-24T10:32:23;9.57;;;6.83;;
11616;SDS011;5864;52.998;9.068;2023-04-24T10:35:10;10.77;;;7.50;;
11616;SDS011;5864;52.998;9.068;2023-04-24T10:37:59;7.77;;;6.97;;
11616;SDS011;5864;52.998;9.068;2023-04-24T10:40:48;10.93;;;7.30;;
11616;SDS011;5864;52.998;9.068;2023-04-24T10:43:33;7.40;;;6.60;;
11616;SDS011;5864;52.998;9.068;2023-04-24T10:46:20;7.13;;;6.43;;
11616;SDS011;5864;52.998;9.068;2023-04-24T10:49:07;8.67;;;6.70;;
11616;SDS011;5864;52.998;9.068;2023-04-24T10:51:54;7.87;;;7.10;;
11616;SDS011;5864;52.998;9.068;2023-04-24T10:54:45;8.33;;;7.53;;
11616;SDS011;5864;52.998;9.068;2023-04-24T10:57:33;7.40;;;6.53;;
11616;SDS011;5864;52.998;9.068;2023-04-24T11:00:19;7.33;;;6.63;;
11616;SDS011;5864;52.998;9.068;2023-04-24T11:03:06;8.33;;;6.97;;
11616;SDS011;5864;52.998;9.068;2023-04-24T11:05:56;9.40;;;7.03;;
11616;SDS011;5864;52.998;9.068;2023-04-24T11:08:44;6.57;;;5.93;;
11616;SDS011;5864;52.998;9.068;2023-04-24T11:11:30;7.17;;;6.47;;
11616;SDS011;5864;52.998;9.068;2023-04-24T11:14:17;7.17;;;6.47;;
11616;SDS011;5864;52.998;9.068;2023-04-24T11:17:02;7.50;;;6.33;;
11616;SDS011;5864;52.998;9.068;2023-04-24T11:19:49;6.70;;;6.10;;
11616;SDS011;5864;52.998;9.068;2023-04-24T11:22:38;6.43;;;5.83;;
11616;SDS011;5864;52.998;9.068;2023-04-24T11:25:24;7.20;;;6.50;;
11616;SDS011;5864;52.998;9.068;2023-04-24T11:28:09;6.73;;;6.07;;
11616;SDS011;5864;52.998;9.068;2023-04-24T11:31:10;6.50;;;5.83;;
11616;SDS011;5864;52.998;9.068;2023-04-24T11:34:19;6.57;;;5.47;;
11616;SDS011;5864;52.998;9.068;2023-04-24T11:37:05;6.27;;;5.67;;
11616;SDS011;5864;52.998;9.068;2023-04-24T11:39:53;7.10;;;6.40;;
11616;SDS011;5864;52.998;9.068;2023-04-24T11:42:40;7.67;;;6.40;;
11616;SDS011;5864;52.998;9.068;2023-04-24T11:45:27;7.67;;;6.87;;
11616;SDS011;5864;52.998;9.068;2023-04-24T11:48:18;9.90;;;6.50;;
11616;SDS011;5864;52.998;9.068;2023-04-24T11:51:04;6.77;;;6.17;;
11616;SDS011;5864;52.998;9.068;2023-04-24T11:53:50;6.50;;;5.80;;
11616;SDS011;5864;52.998;9.068;2023-04-24T11:56:37;7.23;;;5.73;;
11616;SDS011;5864;52.998;9.068;2023-04-24T11:59:23;6.47;;;5.77;;
11616;SDS011;5864;52.998;9.068;2023-04-24T12:02:08;5.93;;;5.33;;
11616;SDS011;5864;52.998;9.068;2023-04-24T12:05:04;6.40;;;5.80;;
11616;SDS011;5864;52.998;9.068;2023-04-24T12:07:51;5.60;;;5.10;;
11616;SDS011;5864;52.998;9.068;2023-04-24T12:10:37;6.30;;;4.90;;
11616;SDS011;5864;52.998;9.068;2023-04-24T12:13:24;5.30;;;4.80;;
11616;SDS011;5864;52.998;9.068;2023-04-24T12:16:11;4.77;;;4.37;;
11616;SDS011;5864;52.998;9.068;2023-04-24T12:18:56;4.20;;;3.80;;
11616;SDS011;5864;52.998;9.068;2023-04-24T12:21:44;4.37;;;3.97;;
11616;SDS011;5864;52.998;9.068;2023-04-24T12:24:55;4.67;;;4.23;;
11616;SDS011;5864;52.998;9.068;2023-04-24T12:27:42;4.00;;;3.70;;
11616;SDS011;5864;52.998;9.068;2023-04-24T12:30:30;4.67;;;3.70;;
11616;SDS011;5864;52.998;9.068;2023-04-24T12:33:17;4.10;;;3.80;;
11616;SDS011;5864;52.998;9.068;2023-04-24T12:36:03;3.80;;;3.50;;
11616;SDS011;5864;52.998;9.068;2023-04-24T12:38:52;3.50;;;3.20;;
11616;SDS011;5864;52.998;9.068;2023-04-24T12:41:38;3.47;;;3.20;;
11616;SDS011;5864;52.998;9.068;2023-04-24T12:44:41;2.87;;;2.67;;
11616;SDS011;5864;52.998;9.068;2023-04-24T12:47:29;2.93;;;2.73;;
11616;SDS011;5864;52.998;9.068;2023-04-24T12:50:16;2.93;;;2.73;;
11616;SDS011;5864;52.998;9.068;2023-04-24T12:53:02;2.70;;;2.50;;
11616;SDS011;5864;52.998;9.068;2023-04-24T12:55:48;3.20;;;2.57;;
11616;SDS011;5864;52.998;9.068;2023-04-24T12:58:36;3.17;;;2.60;;
11616;SDS011;5864;52.998;9.068;2023-04-24T13:01:22;2.80;;;2.60;;
11616;SDS011;5864;52.998;9.068;2023-04-24T13:04:09;2.80;;;2.50;;
11616;SDS011;5864;52.998;9.068;2023-04-24T13:06:55;2.87;;;2.67;;
11616;SDS011;5864;52.998;9.068;2023-04-24T13:09:40;3.37;;;2.60;;
11616;SDS011;5864;52.998;9.068;2023-04-24T13:12:26;2.70;;;2.50;;
11616;SDS011;5864;52.998;9.068;2023-04-24T13:15:12;3.20;;;2.90;;
11616;SDS011;5864;52.998;9.068;2023-04-24T13:17:58;2.97;;;2.77;;
11616;SDS011;5864;52.998;9.068;2023-04-24T13:20:44;3.30;;;3.03;;
11616;SDS011;5864;52.998;9.068;2023-04-24T13:23:30;2.80;;;2.60;;
11616;SDS011;5864;52.998;9.068;2023-04-24T13:26:16;4.23;;;3.03;;
11616;SDS011;5864;52.998;9.068;2023-04-24T13:29:02;7.00;;;4.73;;
11616;SDS011;5864;52.998;9.068;2023-04-24T13:31:49;7.20;;;5.67;;
11616;SDS011;5864;52.998;9.068;2023-04-24T13:34:35;7.53;;;5.27;;
11616;SDS011;5864;52.998;9.068;2023-04-24T13:37:22;7.97;;;6.03;;
11616;SDS011;5864;52.998;9.068;2023-04-24T13:40:09;5.93;;;5.30;;
11616;SDS011;5864;52.998;9.068;2023-04-24T13:42:55;8.97;;;6.00;;
11616;SDS011;5864;52.998;9.068;2023-04-24T13:45:40;8.83;;;6.33;;
11616;SDS011;5864;52.998;9.068;2023-04-24T13:48:26;7.17;;;5.57;;
11616;SDS011;5864;52.998;9.068;2023-04-24T13:51:12;7.30;;;5.63;;
11616;SDS011;5864;52.998;9.068;2023-04-24T13:53:59;6.03;;;5.33;;
11616;SDS011;5864;52.998;9.068;2023-04-24T13:56:44;11.47;;;4.73;;
11616;SDS011;5864;52.998;9.068;2023-04-24T13:59:31;6.60;;;4.80;;
11616;SDS011;5864;52.998;9.068;2023-04-24T14:02:16;6.23;;;4.20;;
11616;SDS011;5864;52.998;9.068;2023-04-24T14:05:02;5.57;;;4.23;;
11616;SDS011;5864;52.998;9.068;2023-04-24T14:07:48;5.93;;;4.20;;
11616;SDS011;5864;52.998;9.068;2023-04-24T14:10:37;7.83;;;4.80;;
11616;SDS011;5864;52.998;9.068;2023-04-24T14:13:23;6.87;;;4.67;;
11616;SDS011;5864;52.998;9.068;2023-04-24T14:16:09;5.60;;;4.40;;
11616;SDS011;5864;52.998;9.068;2023-04-24T14:18:54;5.70;;;4.70;;
11616;SDS011;5864;52.998;9.068;2023-04-24T14:21:40;6.33;;;4.57;;
11616;SDS011;5864;52.998;9.068;2023-04-24T14:24:26;7.23;;;5.63;;
11616;SDS011;5864;52.998;9.068;2023-04-24T14:27:12;5.77;;;4.30;;
11616;SDS011;5864;52.998;9.068;2023-04-24T14:29:58;5.10;;;4.20;;
11616;SDS011;5864;52.998;9.068;2023-04-24T14:32:44;5.00;;;4.33;;
11616;SDS011;5864;52.998;9.068;2023-04-24T14:35:30;6.67;;;4.00;;
11616;SDS011;5864;52.998;9.068;2023-04-24T14:38:17;5.47;;;4.00;;
11616;SDS011;5864;52.998;9.068;2023-04-24T14:41:03;5.63;;;4.30;;
11616;SDS011;5864;52.998;9.068;2023-04-24T14:43:54;10.23;;;4.20;;
11616;SDS011;5864;52.998;9.068;2023-04-24T14:46:40;8.07;;;4.13;;
11616;SDS011;5864;52.998;9.068;2023-04-24T14:49:26;6.47;;;3.90;;
11616;SDS011;5864;52.998;9.068;2023-04-24T14:52:12;7.77;;;4.40;;
11616;SDS011;5864;52.998;9.068;2023-04-24T14:54:57;6.90;;;4.10;;
11616;SDS011;5864;52.998;9.068;2023-04-24T14:57:43;6.87;;;4.00;;
11616;SDS011;5864;52.998;9.068;2023-04-24T15:00:30;7.70;;;4.03;;
11616;SDS011;5864;52.998;9.068;2023-04-24T15:03:16;7.80;;;3.50;;
11616;SDS011;5864;52.998;9.068;2023-04-24T15:06:01;5.17;;;3.90;;
11616;SDS011;5864;52.998;9.068;2023-04-24T15:08:48;4.07;;;3.53;;
11616;SDS011;5864;52.998;9.068;2023-04-24T15:11:33;6.43;;;3.30;;
11616;SDS011;5864;52.998;9.068;2023-04-24T15:14:19;6.73;;;4.10;;
11616;SDS011;5864;52.998;9.068;2023-04-24T15:17:06;4.93;;;3.50;;
11616;SDS011;5864;52.998;9.068;2023-04-24T15:19:52;9.73;;;3.83;;
11616;SDS011;5864;52.998;9.068;2023-04-24T15:22:38;6.43;;;3.70;;
11616;SDS011;5864;52.998;9.068;2023-04-24T15:25:23;7.57;;;4.10;;
11616;SDS011;5864;52.998;9.068;2023-04-24T15:28:09;6.57;;;4.60;;
11616;SDS011;5864;52.998;9.068;2023-04-24T15:30:55;7.07;;;4.17;;
11616;SDS011;5864;52.998;9.068;2023-04-24T15:33:42;10.13;;;4.87;;
11616;SDS011;5864;52.998;9.068;2023-04-24T15:36:27;6.77;;;4.77;;
11616;SDS011;5864;52.998;9.068;2023-04-24T15:39:13;7.20;;;4.43;;
11616;SDS011;5864;52.998;9.068;2023-04-24T15:41:59;7.73;;;5.00;;
11616;SDS011;5864;52.998;9.068;2023-04-24T15:44:45;8.63;;;4.80;;
11616;SDS011;5864;52.998;9.068;2023-04-24T15:47:31;6.47;;;3.63;;
11616;SDS011;5864;52.998;9.068;2023-04-24T15:50:19;4.43;;;3.80;;
11616;SDS011;5864;52.998;9.068;2023-04-24T15:53:05;5.43;;;3.83;;
11616;SDS011;5864;52.998;9.068;2023-04-24T15:55:51;6.57;;;3.77;;
11616;SDS011;5864;52.998;9.068;2023-04-24T15:58:37;7.00;;;4.07;;
11616;SDS011;5864;52.998;9.068;2023-04-24T16:01:23;7.47;;;3.70;;
11616;SDS011;5864;52.998;9.068;2023-04-24T16:04:08;5.90;;;3.67;;
11616;SDS011;5864;52.998;9.068;2023-04-24T16:06:56;6.73;;;3.40;;
11616;SDS011;5864;52.998;9.068;2023-04-24T16:09:42;10.00;;;3.50;;
11616;SDS011;5864;52.998;9.068;2023-04-24T16:12:27;8.87;;;3.17;;
11616;SDS011;5864;52.998;9.068;2023-04-24T16:15:14;5.33;;;3.13;;
11616;SDS011;5864;52.998;9.068;2023-04-24T16:18:00;5.57;;;3.10;;
11616;SDS011;5864;52.998;9.068;2023-04-24T16:20:46;5.33;;;3.60;;
11616;SDS011;5864;52.998;9.068;2023-04-24T16:23:33;5.23;;;3.43;;
11616;SDS011;5864;52.998;9.068;2023-04-24T16:26:19;5.40;;;2.93;;
11616;SDS011;5864;52.998;9.068;2023-04-24T16:29:04;4.50;;;3.07;;
11616;SDS011;5864;52.998;9.068;2023-04-24T16:31:51;6.60;;;3.00;;
11616;SDS011;5864;52.998;9.068;2023-04-24T16:34:36;4.97;;;3.10;;
11616;SDS011;5864;52.998;9.068;2023-04-24T16:37:22;3.90;;;2.80;;
11616;SDS011;5864;52.998;9.068;2023-04-24T16:40:09;4.63;;;2.40;;
11616;SDS011;5864;52.998;9.068;2023-04-24T16:42:56;4.13;;;2.50;;
11616;SDS011;5864;52.998;9.068;2023-04-24T16:45:42;4.63;;;2.53;;
11616;SDS011;5864;52.998;9.068;2023-04-24T16:48:27;3.70;;;2.03;;
11616;SDS011;5864;52.998;9.068;2023-04-24T16:51:14;3.80;;;2.40;;
11616;SDS011;5864;52.998;9.068;2023-04-24T16:54:00;3.33;;;2.40;;